Time;durP1;ratioP1;P1;durP2;ratioP2;P2;SDS_P1;SDS_P2;PMS_P1;PMS_P2;Temp;Humidity;BMP_temperature;BMP_pressure;BME280_temperature;BME280_humidity;BME280_pressure;Samples;Min_cycle;Max_cycle;Signal;HPM_P1;HPM_P2
2021/07/11 00:01:09;;;;;;;;;;;26.40;50.00;;;;;;5132496;27;20387;-59
2021/07/11 00:03:36;;;;;;;;;;;26.40;50.00;;;;;;5133969;27;19924;-59
2021/07/11 00:06:03;;;;;;;;;;;26.40;50.00;;;;;;5133993;27;19985;-59
2021/07/11 00:08:30;;;;;;;;;;;26.40;50.00;;;;;;5129918;27;19923;-59
2021/07/11 00:10:56;;;;;;;;;;;26.40;50.00;;;;;;5129962;27;19923;-59
2021/07/11 00:13:23;;;;;;;;;;;26.40;50.00;;;;;;5132190;27;19928;-58
2021/07/11 00:15:50;;;;;;;;;;;26.40;50.00;;;;;;5131482;27;20362;-59
2021/07/11 00:18:18;;;;;;;;;;;26.40;50.00;;;;;;5131679;27;20296;-59
2021/07/11 00:20:45;;;;;;;;;;;26.40;50.00;;;;;;5131473;28;19953;-59
2021/07/11 00:23:12;;;;;;;;;;;26.40;50.10;;;;;;5131188;28;19927;-59
2021/07/11 00:25:39;;;;;;;;;;;26.40;50.00;;;;;;5131569;28;19923;-59
2021/07/11 00:28:06;;;;;;;;;;;26.40;49.90;;;;;;5132220;28;20382;-59
2021/07/11 00:30:33;;;;;;;;;;;26.40;50.00;;;;;;5129665;28;20071;-59
2021/07/11 00:33:00;;;;;;;;;;;26.40;50.00;;;;;;5132736;27;20375;-59
2021/07/11 00:35:27;;;;;;;;;;;26.40;50.00;;;;;;5130555;27;19984;-59
2021/07/11 00:37:54;;;;;;;;;;;26.40;50.00;;;;;;5129107;27;20383;-58
2021/07/11 00:40:21;;;;;;;;;;;26.40;50.00;;;;;;5134184;27;20003;-57
2021/07/11 00:42:48;;;;;;;;;;;26.40;50.10;;;;;;5135132;27;19923;-58
2021/07/11 00:45:15;;;;;;;;;;;26.40;50.10;;;;;;5136582;27;19923;-58
2021/07/11 00:47:43;;;;;;;;;;;26.40;50.10;;;;;;5130140;27;19985;-57
2021/07/11 00:50:14;;;;;;;;;;;26.40;50.10;;;;;;5119518;27;20268;-58
2021/07/11 00:52:41;;;;;;;;;;;26.40;50.10;;;;;;5119192;27;19923;-58
2021/07/11 00:55:08;;;;;;;;;;;26.40;50.10;;;;;;5107006;27;19923;-58
2021/07/11 00:57:35;;;;;;;;;;;26.30;50.10;;;;;;5134756;27;19927;-58
2021/07/11 01:00:11;;;;;;;;;;;26.40;50.50;;;;;;5098130;28;19979;-58
2021/07/11 01:02:43;;;;;;;;;;;26.40;50.50;;;;;;5121034;27;19969;-58
2021/07/11 01:05:11;;;;;;;;;;;26.30;50.60;;;;;;5134869;27;20676;-58
2021/07/11 01:07:56;;;;;;;;;;;26.30;50.70;;;;;;5133518;27;19931;-58
2021/07/11 01:10:39;;;;;;;;;;;26.30;50.90;;;;;;5119136;27;20290;-58
2021/07/11 01:13:10;;;;;;;;;;;26.30;50.90;;;;;;5133896;27;19924;-58
2021/07/11 01:15:39;;;;;;;;;;;26.30;50.90;;;;;;5133458;27;19923;-58
2021/07/11 01:18:07;;;;;;;;;;;26.30;51.00;;;;;;5133264;27;19966;-58
2021/07/11 01:20:49;;;;;;;;;;;26.30;51.00;;;;;;5131730;27;19965;-58
2021/07/11 01:23:27;;;;;;;;;;;26.30;51.10;;;;;;5123837;27;19990;-58
2021/07/11 01:25:54;;;;;;;;;;;26.30;51.20;;;;;;5134447;27;19971;-58
2021/07/11 01:28:22;;;;;;;;;;;26.30;51.20;;;;;;5135591;27;20345;-58
2021/07/11 01:30:54;;;;;;;;;;;26.30;51.30;;;;;;5134153;27;20398;-58
2021/07/11 01:33:22;;;;;;;;;;;26.20;51.30;;;;;;5135555;27;19968;-58
2021/07/11 01:35:49;;;;;;;;;;;26.30;51.40;;;;;;5134780;27;20340;-58
2021/07/11 01:38:16;;;;;;;;;;;26.20;51.40;;;;;;5133915;27;19962;-58
2021/07/11 01:40:44;;;;;;;;;;;26.20;51.50;;;;;;5135239;27;19924;-58
2021/07/11 01:43:11;;;;;;;;;;;26.20;51.50;;;;;;5133752;27;19924;-58
2021/07/11 01:45:39;;;;;;;;;;;26.20;51.60;;;;;;5114869;27;19971;-58
2021/07/11 01:48:07;;;;;;;;;;;26.20;51.70;;;;;;5133795;27;20379;-58
2021/07/11 01:50:34;;;;;;;;;;;26.20;51.70;;;;;;5134316;27;19962;-58
2021/07/11 01:53:01;;;;;;;;;;;26.20;51.80;;;;;;5135357;27;19923;-58
2021/07/11 01:55:28;;;;;;;;;;;26.20;51.90;;;;;;5132716;27;20422;-58
2021/07/11 01:57:55;;;;;;;;;;;26.20;51.90;;;;;;5133859;27;19928;-58
2021/07/11 02:00:22;;;;;;;;;;;26.20;52.00;;;;;;5132696;27;19924;-58
2021/07/11 02:02:49;;;;;;;;;;;26.20;52.00;;;;;;5134927;27;19923;-58
2021/07/11 02:05:17;;;;;;;;;;;26.20;52.10;;;;;;5132499;27;19927;-58
2021/07/11 02:07:44;;;;;;;;;;;26.20;52.20;;;;;;5135109;27;19928;-58
2021/07/11 02:10:14;;;;;;;;;;;26.20;52.20;;;;;;5133600;27;19923;-58
2021/07/11 02:12:47;;;;;;;;;;;26.20;52.80;;;;;;5113986;27;20614;-58
2021/07/11 02:15:14;;;;;;;;;;;26.20;52.30;;;;;;5135025;27;19927;-58
2021/07/11 02:17:47;;;;;;;;;;;26.10;52.30;;;;;;5131805;27;19972;-58
2021/07/11 02:20:14;;;;;;;;;;;26.20;52.40;;;;;;5118017;27;19924;-58
2021/07/11 02:22:46;;;;;;;;;;;26.10;52.50;;;;;;5132251;27;19970;-58
2021/07/11 02:25:17;;;;;;;;;;;26.10;52.50;;;;;;5126046;27;19945;-58
2021/07/11 02:27:49;;;;;;;;;;;26.10;52.50;;;;;;5125380;27;19923;-58
2021/07/11 02:30:17;;;;;;;;;;;26.10;52.60;;;;;;5128397;27;19969;-58
2021/07/11 02:32:47;;;;;;;;;;;26.10;52.70;;;;;;5121808;27;20309;-58
2021/07/11 02:35:15;;;;;;;;;;;26.10;52.70;;;;;;5133691;27;19924;-58
2021/07/11 02:37:45;;;;;;;;;;;26.10;52.80;;;;;;5123378;27;20332;-58
2021/07/11 02:40:13;;;;;;;;;;;26.10;52.90;;;;;;5133035;27;19924;-58
2021/07/11 02:42:40;;;;;;;;;;;26.10;52.90;;;;;;5135429;27;19992;-58
2021/07/11 02:45:08;;;;;;;;;;;26.10;53.00;;;;;;5130434;27;19931;-58
2021/07/11 02:47:37;;;;;;;;;;;26.10;53.00;;;;;;5116668;27;20014;-58
2021/07/11 02:50:05;;;;;;;;;;;26.00;53.10;;;;;;5133753;27;19924;-58
2021/07/11 02:52:33;;;;;;;;;;;26.00;53.10;;;;;;5132467;27;19924;-59
2021/07/11 02:55:07;;;;;;;;;;;26.00;53.20;;;;;;5132024;27;20357;-58
2021/07/11 02:57:36;;;;;;;;;;;26.00;53.30;;;;;;5115572;27;19923;-58
2021/07/11 03:00:05;;;;;;;;;;;26.00;53.30;;;;;;5116232;27;19981;-58
2021/07/11 03:02:32;;;;;;;;;;;26.00;53.40;;;;;;5115968;27;19924;-59
2021/07/11 03:05:00;;;;;;;;;;;26.00;53.50;;;;;;5133652;27;19923;-58
2021/07/11 03:07:27;;;;;;;;;;;26.00;53.50;;;;;;5116987;27;19974;-58
2021/07/11 03:09:54;;;;;;;;;;;26.00;53.70;;;;;;5132467;27;19924;-58
2021/07/11 03:12:21;;;;;;;;;;;26.00;53.80;;;;;;5130952;27;19969;-58
2021/07/11 03:14:49;;;;;;;;;;;26.00;53.90;;;;;;5132608;27;20359;-58
2021/07/11 03:17:19;;;;;;;;;;;26.00;54.10;;;;;;5132355;27;20321;-58
2021/07/11 03:19:48;;;;;;;;;;;26.00;54.00;;;;;;5132423;27;19924;-58
2021/07/11 03:22:17;;;;;;;;;;;26.10;54.20;;;;;;5133232;27;19927;-58
2021/07/11 03:24:44;;;;;;;;;;;26.10;54.40;;;;;;5131944;27;19992;-58
2021/07/11 03:27:11;;;;;;;;;;;26.10;54.40;;;;;;5121717;27;19927;-58
2021/07/11 03:29:53;;;;;;;;;;;26.10;54.50;;;;;;5124892;27;19963;-58
2021/07/11 03:32:22;;;;;;;;;;;26.10;54.60;;;;;;5120709;27;19923;-58
2021/07/11 03:34:50;;;;;;;;;;;26.10;54.80;;;;;;5124301;27;20383;-58
2021/07/11 03:37:19;;;;;;;;;;;26.10;54.80;;;;;;5115281;27;19923;-58
2021/07/11 03:39:48;;;;;;;;;;;26.10;54.80;;;;;;5134404;27;20377;-58
2021/07/11 03:42:17;;;;;;;;;;;26.10;54.90;;;;;;5133008;27;19923;-58
2021/07/11 03:44:47;;;;;;;;;;;26.10;54.80;;;;;;5134474;27;20305;-58
2021/07/11 03:47:18;;;;;;;;;;;26.10;55.10;;;;;;5133083;27;19976;-58
2021/07/11 03:49:47;;;;;;;;;;;26.20;55.10;;;;;;5132097;27;20278;-58
2021/07/11 03:52:15;;;;;;;;;;;26.20;55.00;;;;;;5130284;27;19927;-58
2021/07/11 03:54:44;;;;;;;;;;;26.20;55.20;;;;;;5131611;27;20302;-58
2021/07/11 03:57:12;;;;;;;;;;;26.20;55.80;;;;;;5132695;27;19937;-58
2021/07/11 03:59:40;;;;;;;;;;;26.20;55.30;;;;;;5133611;27;19963;-58
2021/07/11 04:02:08;;;;;;;;;;;26.20;55.20;;;;;;5130559;27;19925;-58
2021/07/11 04:04:38;;;;;;;;;;;26.20;55.30;;;;;;5130162;27;19932;-58
2021/07/11 04:07:06;;;;;;;;;;;26.20;55.30;;;;;;5131451;27;19924;-58
2021/07/11 04:09:34;;;;;;;;;;;26.20;55.30;;;;;;5133204;27;19979;-58
2021/07/11 04:12:02;;;;;;;;;;;26.30;55.80;;;;;;5130437;27;19923;-59
2021/07/11 04:14:29;;;;;;;;;;;26.30;55.20;;;;;;5133910;27;20329;-58
2021/07/11 04:17:01;;;;;;;;;;;26.30;55.30;;;;;;5115865;28;19928;-58
2021/07/11 04:19:30;;;;;;;;;;;26.30;55.30;;;;;;5133878;27;20289;-58
2021/07/11 04:21:58;;;;;;;;;;;26.30;55.30;;;;;;5114651;28;19924;-58
2021/07/11 04:24:25;;;;;;;;;;;26.40;55.30;;;;;;5116064;28;19977;-59
2021/07/11 04:26:55;;;;;;;;;;;26.40;55.20;;;;;;5131084;28;19923;-58
2021/07/11 04:29:23;;;;;;;;;;;26.40;55.40;;;;;;5117050;28;19980;-58
2021/07/11 04:31:50;;;;;;;;;;;26.40;55.30;;;;;;5130773;28;19923;-58
2021/07/11 04:34:20;;;;;;;;;;;26.40;55.30;;;;;;5132662;28;20277;-58
2021/07/11 04:36:47;;;;;;;;;;;26.50;55.30;;;;;;5114800;28;19924;-58
2021/07/11 04:39:14;;;;;;;;;;;26.40;55.20;;;;;;5130213;28;19975;-58
2021/07/11 04:41:42;;;;;;;;;;;26.50;55.30;;;;;;5133219;28;19924;-58
2021/07/11 04:44:09;;;;;;;;;;;26.50;55.20;;;;;;5133762;28;20384;-58
2021/07/11 04:46:36;;;;;;;;;;;26.50;55.20;;;;;;5130904;28;19977;-58
2021/07/11 04:49:03;;;;;;;;;;;26.50;55.30;;;;;;5131113;28;19943;-58
2021/07/11 04:51:31;;;;;;;;;;;26.50;55.30;;;;;;5130605;28;19963;-58
2021/07/11 04:53:58;;;;;;;;;;;26.50;55.40;;;;;;5131083;28;19923;-58
2021/07/11 04:56:25;;;;;;;;;;;26.50;55.40;;;;;;5130439;28;19977;-58
2021/07/11 04:58:53;;;;;;;;;;;26.50;55.40;;;;;;5131874;28;19931;-58
2021/07/11 05:01:20;;;;;;;;;;;26.50;55.40;;;;;;5130881;28;19931;-58
2021/07/11 05:03:47;;;;;;;;;;;26.50;55.50;;;;;;5130647;28;20443;-58
2021/07/11 05:06:18;;;;;;;;;;;26.50;55.50;;;;;;5131329;28;21347;-58
2021/07/11 05:08:47;;;;;;;;;;;26.50;55.50;;;;;;5132343;28;19923;-58
2021/07/11 05:11:14;;;;;;;;;;;26.50;55.60;;;;;;5129216;28;19977;-58
2021/07/11 05:13:41;;;;;;;;;;;26.50;55.50;;;;;;5129693;28;19967;-58
2021/07/11 05:16:08;;;;;;;;;;;26.50;55.60;;;;;;5131908;28;19931;-58
2021/07/11 05:18:35;;;;;;;;;;;26.50;55.60;;;;;;5131390;28;20035;-58
2021/07/11 05:21:02;;;;;;;;;;;26.50;55.70;;;;;;5136635;27;20405;-58
2021/07/11 05:23:29;;;;;;;;;;;26.50;55.60;;;;;;5137062;27;19968;-58
2021/07/11 05:25:56;;;;;;;;;;;26.40;55.50;;;;;;5136195;27;19981;-58
2021/07/11 05:28:23;;;;;;;;;;;26.50;55.60;;;;;;5134014;27;20390;-58
2021/07/11 05:30:50;;;;;;;;;;;26.50;55.60;;;;;;5133024;27;19931;-58
2021/07/11 05:33:17;;;;;;;;;;;26.40;55.60;;;;;;5134274;27;19977;-58
2021/07/11 05:35:44;;;;;;;;;;;26.50;55.60;;;;;;5132946;27;20338;-58
2021/07/11 05:38:12;;;;;;;;;;;26.50;55.70;;;;;;5115148;27;19923;-58
2021/07/11 05:40:39;;;;;;;;;;;26.50;55.60;;;;;;5133764;27;19977;-58
2021/07/11 05:43:06;;;;;;;;;;;26.50;55.60;;;;;;5134156;27;19924;-58
2021/07/11 05:45:33;;;;;;;;;;;26.50;55.60;;;;;;5134388;27;20074;-58
2021/07/11 05:48:00;;;;;;;;;;;26.50;55.60;;;;;;5133693;27;20417;-58
2021/07/11 05:50:27;;;;;;;;;;;26.50;55.60;;;;;;5134130;27;19976;-58
2021/07/11 05:52:54;;;;;;;;;;;26.50;55.50;;;;;;5134382;27;19934;-58
2021/07/11 05:55:21;;;;;;;;;;;26.50;55.60;;;;;;5134730;27;19923;-58
2021/07/11 05:57:48;;;;;;;;;;;26.50;55.50;;;;;;5136194;27;20006;-58
2021/07/11 06:00:15;;;;;;;;;;;26.50;55.50;;;;;;5134002;27;19923;-58
2021/07/11 06:02:42;;;;;;;;;;;26.50;55.50;;;;;;5133448;27;19923;-58
2021/07/11 06:05:09;;;;;;;;;;;26.50;55.50;;;;;;5133487;27;19931;-58
2021/07/11 06:07:37;;;;;;;;;;;26.50;55.50;;;;;;5133714;27;19977;-58
2021/07/11 06:10:07;;;;;;;;;;;26.50;55.50;;;;;;5134093;27;19923;-58
2021/07/11 06:12:34;;;;;;;;;;;26.50;55.60;;;;;;5116938;27;19969;-58
2021/07/11 06:15:04;;;;;;;;;;;26.40;55.50;;;;;;5116866;27;19924;-58
2021/07/11 06:17:32;;;;;;;;;;;26.40;55.40;;;;;;5134500;27;19923;-58
2021/07/11 06:20:01;;;;;;;;;;;26.40;55.40;;;;;;5134028;27;19924;-58
2021/07/11 06:22:28;;;;;;;;;;;26.40;55.40;;;;;;5133925;27;20282;-58
2021/07/11 06:24:55;;;;;;;;;;;26.40;55.30;;;;;;5132859;27;19923;-58
2021/07/11 06:27:22;;;;;;;;;;;26.40;55.30;;;;;;5134222;27;19923;-58
2021/07/11 06:29:50;;;;;;;;;;;26.40;55.20;;;;;;5132945;27;19923;-58
2021/07/11 06:32:17;;;;;;;;;;;26.40;55.20;;;;;;5131813;27;19976;-58
2021/07/11 06:34:44;;;;;;;;;;;26.40;55.20;;;;;;5134227;27;19995;-58
2021/07/11 06:37:11;;;;;;;;;;;26.40;55.20;;;;;;5131084;27;20290;-58
2021/07/11 06:39:38;;;;;;;;;;;26.40;55.10;;;;;;5133473;27;20294;-58
2021/07/11 06:42:05;;;;;;;;;;;26.40;55.10;;;;;;5135386;27;19927;-58
2021/07/11 06:44:32;;;;;;;;;;;26.40;55.10;;;;;;5134173;27;20410;-58
2021/07/11 06:46:59;;;;;;;;;;;26.30;55.00;;;;;;5132464;27;19976;-58
2021/07/11 06:49:26;;;;;;;;;;;26.30;55.00;;;;;;5132650;27;19924;-58
2021/07/11 06:51:53;;;;;;;;;;;26.30;55.00;;;;;;5131623;27;19923;-58
2021/07/11 06:54:20;;;;;;;;;;;26.30;55.00;;;;;;5131445;27;19923;-58
2021/07/11 06:56:47;;;;;;;;;;;26.30;55.00;;;;;;5133502;27;20325;-58
2021/07/11 06:59:14;;;;;;;;;;;26.30;55.00;;;;;;5130754;27;19923;-58
2021/07/11 07:01:41;;;;;;;;;;;26.30;55.00;;;;;;5116341;27;20369;-58
2021/07/11 07:04:08;;;;;;;;;;;26.30;54.90;;;;;;5132239;27;19978;-58
2021/07/11 07:06:35;;;;;;;;;;;26.30;54.90;;;;;;5133889;27;20317;-58
2021/07/11 07:09:02;;;;;;;;;;;26.30;54.80;;;;;;5115885;27;19924;-58
2021/07/11 07:11:29;;;;;;;;;;;26.30;54.80;;;;;;5116166;27;19963;-57
2021/07/11 07:13:56;;;;;;;;;;;26.30;54.80;;;;;;5132886;27;19928;-58
2021/07/11 07:16:23;;;;;;;;;;;26.30;54.80;;;;;;5134573;27;19923;-58
2021/07/11 07:18:50;;;;;;;;;;;26.30;54.80;;;;;;5133126;27;19924;-58
2021/07/11 07:21:17;;;;;;;;;;;26.30;54.80;;;;;;5132316;27;19972;-58
2021/07/11 07:23:44;;;;;;;;;;;26.30;54.80;;;;;;5132934;27;20007;-58
2021/07/11 07:26:12;;;;;;;;;;;26.30;54.80;;;;;;5133210;27;19938;-58
2021/07/11 07:28:39;;;;;;;;;;;26.30;54.80;;;;;;5130066;27;19923;-58
2021/07/11 07:31:06;;;;;;;;;;;26.30;54.80;;;;;;5133193;27;20378;-58
2021/07/11 07:33:33;;;;;;;;;;;26.30;54.70;;;;;;5130870;27;19973;-58
2021/07/11 07:36:00;;;;;;;;;;;26.30;54.70;;;;;;5123585;27;20357;-58
2021/07/11 07:38:27;;;;;;;;;;;26.30;54.60;;;;;;5104644;27;19962;-58
2021/07/11 07:40:54;;;;;;;;;;;26.30;54.60;;;;;;5131716;27;19924;-58
2021/07/11 07:43:20;;;;;;;;;;;26.30;54.60;;;;;;5130730;27;19981;-58
2021/07/11 07:45:48;;;;;;;;;;;26.30;54.50;;;;;;5133274;27;19927;-58
2021/07/11 07:48:15;;;;;;;;;;;26.30;54.40;;;;;;5132088;27;19970;-58
2021/07/11 07:50:42;;;;;;;;;;;26.30;54.40;;;;;;5128601;27;19993;-58
2021/07/11 07:53:08;;;;;;;;;;;26.30;54.40;;;;;;5114457;27;20010;-58
2021/07/11 07:55:35;;;;;;;;;;;26.30;54.50;;;;;;5116210;27;19923;-58
2021/07/11 07:58:02;;;;;;;;;;;26.30;54.50;;;;;;5130233;27;19924;-58
2021/07/11 08:00:30;;;;;;;;;;;26.30;54.60;;;;;;5113703;28;20006;-58
2021/07/11 08:02:59;;;;;;;;;;;26.30;54.60;;;;;;5114911;27;19924;-58
2021/07/11 08:05:27;;;;;;;;;;;26.30;54.60;;;;;;5113955;28;19924;-58
2021/07/11 08:07:54;;;;;;;;;;;26.30;54.60;;;;;;5132880;27;19924;-58
2021/07/11 08:10:21;;;;;;;;;;;26.30;54.70;;;;;;5115764;27;19924;-58
2021/07/11 08:12:48;;;;;;;;;;;26.30;54.70;;;;;;5132789;27;20406;-58
2021/07/11 08:15:16;;;;;;;;;;;26.30;54.60;;;;;;5132400;27;19927;-58
2021/07/11 08:17:44;;;;;;;;;;;26.30;54.60;;;;;;5131151;27;19958;-57
2021/07/11 08:20:12;;;;;;;;;;;26.30;54.60;;;;;;5130186;27;19927;-58
2021/07/11 08:22:39;;;;;;;;;;;26.30;54.60;;;;;;5131179;27;19923;-58
2021/07/11 08:25:09;;;;;;;;;;;26.30;54.50;;;;;;5130498;28;20270;-58
2021/07/11 08:27:37;;;;;;;;;;;26.30;54.40;;;;;;5130778;28;19974;-58
2021/07/11 08:30:05;;;;;;;;;;;26.30;55.00;;;;;;5132276;28;20356;-58
2021/07/11 08:32:32;;;;;;;;;;;26.40;54.50;;;;;;5131431;28;20444;-58
2021/07/11 08:34:59;;;;;;;;;;;26.40;54.50;;;;;;5131109;28;19928;-58
2021/07/11 08:37:26;;;;;;;;;;;26.30;54.40;;;;;;5121393;28;19923;-58
2021/07/11 08:39:54;;;;;;;;;;;26.40;54.50;;;;;;5133258;28;19968;-58
2021/07/11 08:42:23;;;;;;;;;;;26.30;54.40;;;;;;5125593;28;19953;-58
2021/07/11 08:44:51;;;;;;;;;;;26.30;54.40;;;;;;5121599;28;19968;-58
2021/07/11 08:47:19;;;;;;;;;;;26.30;54.30;;;;;;5125785;28;19924;-58
2021/07/11 08:49:46;;;;;;;;;;;26.30;54.40;;;;;;5114153;28;19923;-58
2021/07/11 08:52:14;;;;;;;;;;;26.30;54.40;;;;;;5117196;28;19992;-58
2021/07/11 08:54:41;;;;;;;;;;;26.30;54.50;;;;;;5131218;27;19924;-59
2021/07/11 08:57:09;;;;;;;;;;;26.30;54.40;;;;;;5135103;27;20393;-59
2021/07/11 08:59:39;;;;;;;;;;;26.30;54.40;;;;;;5133178;27;19932;-59
2021/07/11 09:02:07;;;;;;;;;;;26.30;54.40;;;;;;5133885;27;20249;-59
2021/07/11 09:04:42;;;;;;;;;;;26.30;54.30;;;;;;5136986;27;19939;-59
2021/07/11 09:07:22;;;;;;;;;;;26.40;54.30;;;;;;5118140;27;20275;-59
2021/07/11 09:09:54;;;;;;;;;;;26.40;54.30;;;;;;5118063;27;19966;-59
2021/07/11 09:12:21;;;;;;;;;;;26.40;54.20;;;;;;5135118;27;19924;-58
2021/07/11 09:14:59;;;;;;;;;;;26.40;54.20;;;;;;5135575;27;20007;-59
2021/07/11 09:17:33;;;;;;;;;;;26.40;54.10;;;;;;5136228;27;19976;-59
2021/07/11 09:20:00;;;;;;;;;;;26.50;54.10;;;;;;5118758;27;19923;-59
2021/07/11 09:22:28;;;;;;;;;;;26.50;53.90;;;;;;5116619;27;19930;-58
2021/07/11 09:24:56;;;;;;;;;;;26.60;53.90;;;;;;5135743;27;19927;-58
2021/07/11 09:27:24;;;;;;;;;;;26.60;53.80;;;;;;5134331;27;19953;-58
2021/07/11 09:29:51;;;;;;;;;;;26.60;53.50;;;;;;5135282;27;19958;-58
2021/07/11 09:32:37;;;;;;;;;;;26.70;53.50;;;;;;5134478;27;19923;-58
2021/07/11 09:35:12;;;;;;;;;;;26.70;53.20;;;;;;5135403;27;19934;-58
2021/07/11 09:37:40;;;;;;;;;;;26.80;53.30;;;;;;5099753;27;19985;-58
2021/07/11 09:40:08;;;;;;;;;;;26.90;53.00;;;;;;5137066;27;20290;-58
2021/07/11 09:42:36;;;;;;;;;;;26.90;52.90;;;;;;5136160;27;19992;-58
2021/07/11 09:45:05;;;;;;;;;;;26.90;52.80;;;;;;5135279;27;19930;-58
2021/07/11 09:47:32;;;;;;;;;;;26.90;52.80;;;;;;5132551;27;19923;-58
2021/07/11 09:50:05;;;;;;;;;;;26.90;52.80;;;;;;5135509;27;19924;-58
2021/07/11 09:52:33;;;;;;;;;;;26.90;52.70;;;;;;5133713;27;20010;-58
2021/07/11 09:55:09;;;;;;;;;;;26.90;52.80;;;;;;5133668;27;19976;-58
2021/07/11 09:57:39;;;;;;;;;;;26.90;52.80;;;;;;5133385;27;19968;-58
2021/07/11 10:00:18;;;;;;;;;;;26.80;52.70;;;;;;5118221;27;19923;-58
2021/07/11 10:02:45;;;;;;;;;;;26.80;52.70;;;;;;5132307;27;19980;-58
2021/07/11 10:05:13;;;;;;;;;;;26.80;52.70;;;;;;5131834;27;19959;-58
2021/07/11 10:07:41;;;;;;;;;;;26.80;52.80;;;;;;5117306;27;19924;-58
2021/07/11 10:10:09;;;;;;;;;;;26.80;52.80;;;;;;5134722;27;20283;-58
2021/07/11 10:12:37;;;;;;;;;;;26.80;52.80;;;;;;5132297;27;20466;-58
2021/07/11 10:15:06;;;;;;;;;;;26.80;52.80;;;;;;5133590;27;19973;-58
2021/07/11 10:17:33;;;;;;;;;;;26.70;52.80;;;;;;5135551;27;19972;-58
2021/07/11 10:20:01;;;;;;;;;;;26.70;52.80;;;;;;5133318;27;20297;-58
2021/07/11 10:22:28;;;;;;;;;;;26.80;52.90;;;;;;5134839;27;20013;-58
2021/07/11 10:24:56;;;;;;;;;;;26.70;52.80;;;;;;5131864;27;19980;-58
2021/07/11 10:27:27;;;;;;;;;;;26.70;52.90;;;;;;5133416;27;19923;-58
2021/07/11 10:29:55;;;;;;;;;;;26.70;53.00;;;;;;5132850;27;19923;-58
2021/07/11 10:32:32;;;;;;;;;;;26.70;52.90;;;;;;5117508;27;19945;-58
2021/07/11 10:35:10;;;;;;;;;;;26.70;52.90;;;;;;5134339;27;19923;-58
2021/07/11 10:37:42;;;;;;;;;;;26.70;52.90;;;;;;5120662;27;19965;-58
2021/07/11 10:40:10;;;;;;;;;;;26.70;52.80;;;;;;5134482;27;19924;-58
2021/07/11 10:42:37;;;;;;;;;;;26.70;52.90;;;;;;5132915;27;19972;-58
2021/07/11 10:45:06;;;;;;;;;;;26.70;52.80;;;;;;5132960;27;19935;-58
2021/07/11 10:47:34;;;;;;;;;;;26.80;52.80;;;;;;5134304;27;19927;-58
2021/07/11 10:50:03;;;;;;;;;;;26.80;52.70;;;;;;5133705;27;20331;-58
2021/07/11 10:52:35;;;;;;;;;;;26.80;52.60;;;;;;5132576;27;19977;-58
2021/07/11 10:55:05;;;;;;;;;;;26.90;52.60;;;;;;5132523;27;19928;-59
2021/07/11 10:57:34;;;;;;;;;;;26.90;52.50;;;;;;5114827;28;19923;-59
2021/07/11 11:00:08;;;;;;;;;;;27.00;52.30;;;;;;5132666;27;20367;-59
2021/07/11 11:02:36;;;;;;;;;;;27.10;52.30;;;;;;5115693;27;19924;-59
2021/07/11 11:05:11;;;;;;;;;;;27.20;52.20;;;;;;5133923;27;19968;-59
2021/07/11 11:07:46;;;;;;;;;;;27.20;52.00;;;;;;5132832;27;19976;-59
2021/07/11 11:10:20;;;;;;;;;;;27.30;51.90;;;;;;5133094;27;20335;-59
2021/07/11 11:13:01;;;;;;;;;;;27.30;51.70;;;;;;5132222;27;19930;-59
2021/07/11 11:15:46;;;;;;;;;;;27.40;51.60;;;;;;5115658;27;20014;-59
2021/07/11 11:18:17;;;;;;;;;;;27.40;51.50;;;;;;5115918;27;19931;-59
2021/07/11 11:20:49;;;;;;;;;;;27.40;51.50;;;;;;5115402;27;19955;-58
2021/07/11 11:23:16;;;;;;;;;;;27.30;51.50;;;;;;5115633;27;19977;-59
2021/07/11 11:25:45;;;;;;;;;;;27.30;51.50;;;;;;5132118;27;19932;-58
2021/07/11 11:28:13;;;;;;;;;;;27.40;51.70;;;;;;5132132;27;19969;-59
2021/07/11 11:30:41;;;;;;;;;;;27.40;51.60;;;;;;5133201;27;20404;-59
2021/07/11 11:33:08;;;;;;;;;;;27.30;51.50;;;;;;5133462;27;20386;-59
2021/07/11 11:35:36;;;;;;;;;;;27.40;51.50;;;;;;5118743;27;19923;-59
2021/07/11 11:38:04;;;;;;;;;;;27.40;51.50;;;;;;5132054;27;20026;-59
2021/07/11 11:40:32;;;;;;;;;;;27.40;51.50;;;;;;5130740;27;19928;-59
2021/07/11 11:43:00;;;;;;;;;;;27.40;51.40;;;;;;5131910;27;19923;-59
2021/07/11 11:45:31;;;;;;;;;;;27.40;51.40;;;;;;5130496;27;20435;-59
2021/07/11 11:47:59;;;;;;;;;;;27.40;51.30;;;;;;5130359;27;19924;-59
2021/07/11 11:50:26;;;;;;;;;;;27.40;51.30;;;;;;5130710;27;19923;-59
2021/07/11 11:53:03;;;;;;;;;;;27.40;51.20;;;;;;5131570;27;19923;-59
2021/07/11 11:55:30;;;;;;;;;;;27.50;51.20;;;;;;5130100;27;19958;-59
2021/07/11 11:58:00;;;;;;;;;;;27.50;51.20;;;;;;5132322;27;20389;-59
2021/07/11 12:00:28;;;;;;;;;;;27.50;51.00;;;;;;5131392;27;19927;-58
2021/07/11 12:03:02;;;;;;;;;;;27.50;51.10;;;;;;5124062;27;19977;-58
2021/07/11 12:05:30;;;;;;;;;;;27.50;51.00;;;;;;5108541;27;19923;-59
2021/07/11 12:08:15;;;;;;;;;;;27.50;51.00;;;;;;5130402;27;19933;-59
2021/07/11 12:10:42;;;;;;;;;;;27.50;51.00;;;;;;5122811;27;19924;-58
2021/07/11 12:13:09;;;;;;;;;;;27.50;50.90;;;;;;5125271;27;19970;-59
2021/07/11 12:15:38;;;;;;;;;;;27.60;50.90;;;;;;5106267;28;20331;-59
2021/07/11 12:18:07;;;;;;;;;;;27.60;50.80;;;;;;5115666;27;19935;-59
2021/07/11 12:20:37;;;;;;;;;;;27.70;50.60;;;;;;5121565;27;19963;-59
2021/07/11 12:23:11;;;;;;;;;;;27.70;50.40;;;;;;5127078;27;19928;-59
2021/07/11 12:25:40;;;;;;;;;;;27.70;50.40;;;;;;5121700;28;20302;-59
2021/07/11 12:28:12;;;;;;;;;;;27.70;50.30;;;;;;5130445;27;19923;-59
2021/07/11 12:30:46;;;;;;;;;;;27.80;50.30;;;;;;5130593;28;19952;-59
2021/07/11 12:33:25;;;;;;;;;;;27.80;50.20;;;;;;5132376;28;19923;-59
2021/07/11 12:35:53;;;;;;;;;;;27.90;50.00;;;;;;5131723;28;19923;-59
2021/07/11 12:38:35;;;;;;;;;;;27.90;49.90;;;;;;5112961;28;20328;-59
2021/07/11 12:41:04;;;;;;;;;;;27.90;49.80;;;;;;5130174;28;20336;-59
2021/07/11 12:43:32;;;;;;;;;;;27.90;49.70;;;;;;5131839;28;19930;-59
2021/07/11 12:46:06;;;;;;;;;;;27.90;49.70;;;;;;5131029;28;20279;-59
2021/07/11 12:48:39;;;;;;;;;;;27.80;49.70;;;;;;5132122;28;19962;-59
2021/07/11 12:51:13;;;;;;;;;;;27.90;49.70;;;;;;5132458;28;19923;-59
2021/07/11 12:53:40;;;;;;;;;;;27.90;49.80;;;;;;5129456;28;20340;-59
2021/07/11 12:56:07;;;;;;;;;;;27.90;49.70;;;;;;5129361;28;20105;-59
2021/07/11 12:58:35;;;;;;;;;;;27.90;49.60;;;;;;5132169;28;20335;-58
2021/07/11 13:01:03;;;;;;;;;;;27.90;49.60;;;;;;5129493;28;19923;-59
2021/07/11 13:03:30;;;;;;;;;;;27.90;49.40;;;;;;5130877;28;19924;-59
2021/07/11 13:05:58;;;;;;;;;;;27.90;49.50;;;;;;5097505;28;19927;-58
2021/07/11 13:08:26;;;;;;;;;;;27.80;49.40;;;;;;5116016;28;20390;-59
2021/07/11 13:10:53;;;;;;;;;;;27.90;49.50;;;;;;5133178;28;19924;-58
2021/07/11 13:13:20;;;;;;;;;;;27.90;49.60;;;;;;5133512;28;19930;-59
2021/07/11 13:15:48;;;;;;;;;;;27.80;49.40;;;;;;5114021;28;19923;-59
2021/07/11 13:18:16;;;;;;;;;;;27.90;49.70;;;;;;5131371;28;19924;-59
2021/07/11 13:20:44;;;;;;;;;;;27.90;49.60;;;;;;5114882;28;19973;-59
2021/07/11 13:23:11;;;;;;;;;;;27.80;49.60;;;;;;5129435;28;19923;-59
2021/07/11 13:25:38;;;;;;;;;;;27.80;49.70;;;;;;5129410;28;19923;-59
2021/07/11 13:28:05;;;;;;;;;;;27.80;49.60;;;;;;5129437;28;20370;-59
2021/07/11 13:30:33;;;;;;;;;;;27.80;49.70;;;;;;5130961;28;19923;-59
2021/07/11 13:33:00;;;;;;;;;;;27.70;49.60;;;;;;5129560;28;19923;-59
2021/07/11 13:35:27;;;;;;;;;;;27.60;49.70;;;;;;5130126;28;19923;-59
2021/07/11 13:37:55;;;;;;;;;;;27.60;49.80;;;;;;5130921;28;20332;-58
2021/07/11 13:40:22;;;;;;;;;;;27.60;49.80;;;;;;5130232;27;20006;-59
2021/07/11 13:42:50;;;;;;;;;;;27.60;50.10;;;;;;5134327;27;19923;-59
2021/07/11 13:45:17;;;;;;;;;;;27.50;50.20;;;;;;5135481;27;19992;-59
2021/07/11 13:47:45;;;;;;;;;;;27.50;50.20;;;;;;5134333;27;19929;-59
2021/07/11 13:50:13;;;;;;;;;;;27.50;50.30;;;;;;5117053;27;20013;-59
2021/07/11 13:52:40;;;;;;;;;;;27.50;50.30;;;;;;5132811;27;19923;-59
2021/07/11 13:55:08;;;;;;;;;;;27.40;50.30;;;;;;5133618;27;20336;-59
2021/07/11 13:57:36;;;;;;;;;;;27.40;50.40;;;;;;5132733;27;19931;-58
2021/07/11 14:00:04;;;;;;;;;;;27.40;50.50;;;;;;5118745;27;19939;-58
2021/07/11 14:02:31;;;;;;;;;;;27.40;50.60;;;;;;5133178;27;19924;-58
2021/07/11 14:04:58;;;;;;;;;;;27.40;50.60;;;;;;5136283;27;19968;-59
2021/07/11 14:07:26;;;;;;;;;;;27.30;50.60;;;;;;5133376;27;19927;-59
2021/07/11 14:09:52;;;;;;;;;;;27.30;50.70;;;;;;5133943;27;19973;-59
2021/07/11 14:12:19;;;;;;;;;;;27.30;50.80;;;;;;5134950;27;19923;-59
2021/07/11 14:14:46;;;;;;;;;;;27.20;50.70;;;;;;5118101;27;19923;-59
2021/07/11 14:17:13;;;;;;;;;;;27.30;50.90;;;;;;5134832;27;19923;-59
2021/07/11 14:19:40;;;;;;;;;;;27.30;50.90;;;;;;5133379;27;20298;-58
2021/07/11 14:22:09;;;;;;;;;;;27.30;50.90;;;;;;5133566;27;19950;-58
2021/07/11 14:24:36;;;;;;;;;;;27.20;50.90;;;;;;5132295;27;20423;-59